Pagrindinis puslapis
METAR-TAF:

METAR-TAF

Oro uostai :

Santa Ana del Yacuma, Bolivija

platuma: 13-46S, ilguma: 065-26W, Aukštis: 144 m

Dabartinis oras

Ataskaita buvo paskelbta 52 minutes, ne 12:00 UTC
Vėjas 4 kt iš Šiaurės
Temperatūra 25°C
Drėgmė 83%
Slėgis 1011 hPa
Matomumas: 5000 m
dūmai

METAR: SLSA 151200Z 35004KT 5000 FU NSC 25/22 Q1011

Laikas: 08:52 (12:52 UTC)


TAF: trūkstamas

Orai ataskaitas ir orų prognozės (METAR, TAF).

turimą stotys yra geltonos ir raudonos taškus žemėlapyje.

Perkelti pele per norėdami pamatyti stoties vardą.

Tada spustelėkite, norėdami matyti oro stebėjimo ir prognozės.

Norėdami pakeisti žemėlapį: spustelėkite ant žalios mygtukų su juodo kryžiaus žemyn,; žalią mygtuką su brūkšneliu, jei norite nutolinti; arba žalių rodyklių gretimoms žemėlapius.


METAR-TAF: